createdAt,value
2023-12-08T00:00:27.001Z,97381.09
2023-12-08T00:02:54.655Z,97385.09
2023-12-08T00:05:21.619Z,97385.94
2023-12-08T00:07:48.842Z,97379.13
2023-12-08T00:10:16.881Z,97390.97
2023-12-08T00:12:44.126Z,97377.84
2023-12-08T00:15:14.281Z,97389.97
2023-12-08T00:17:41.391Z,97394.13
2023-12-08T00:20:09.421Z,97388.78
2023-12-08T00:22:36.813Z,97395.84
2023-12-08T00:25:04.211Z,97390.50
2023-12-08T00:27:31.444Z,97387.72
2023-12-08T00:29:58.899Z,97390.31
2023-12-08T00:32:26.087Z,97378.75
2023-12-08T00:34:55.270Z,97382.88
2023-12-08T00:37:22.621Z,97394.13
2023-12-08T00:39:50.108Z,97400.41
2023-12-08T00:42:17.616Z,97402.41
2023-12-08T00:44:45.674Z,97393.81
2023-12-08T00:47:13.427Z,97403.81
2023-12-08T00:49:40.872Z,97402.00
2023-12-08T00:52:08.147Z,97403.91
2023-12-08T00:54:35.323Z,97397.94
2023-12-08T00:57:03.143Z,97397.94
2023-12-08T00:59:32.008Z,97391.63
2023-12-08T01:01:59.376Z,97398.78
2023-12-08T01:04:26.523Z,97391.91
2023-12-08T01:06:53.656Z,97395.09
2023-12-08T01:09:20.768Z,97398.47
2023-12-08T01:11:48.008Z,97385.91
2023-12-08T01:14:15.382Z,97396.19
2023-12-08T01:16:43.459Z,97396.13
2023-12-08T01:19:17.233Z,97387.00
2023-12-08T01:21:50.462Z,97380.75
2023-12-08T01:24:17.626Z,97382.66
2023-12-08T01:26:47.939Z,97365.94
2023-12-08T01:29:16.940Z,97374.31
2023-12-08T01:31:44.211Z,97381.78
2023-12-08T01:34:11.808Z,97375.66
2023-12-08T01:36:44.181Z,97370.22
2023-12-08T01:39:12.763Z,97370.84
2023-12-08T01:41:40.495Z,97372.59
2023-12-08T01:44:10.076Z,97371.91
2023-12-08T01:46:38.709Z,97373.34
2023-12-08T01:49:07.242Z,97377.38
2023-12-08T01:51:38.265Z,97377.28
2023-12-08T01:54:07.715Z,97370.25
2023-12-08T01:56:38.296Z,97371.09
2023-12-08T01:59:06.165Z,97368.41
2023-12-08T02:01:33.248Z,97366.72
2023-12-08T02:04:00.796Z,97378.63
2023-12-08T02:06:28.579Z,97371.75
2023-12-08T02:08:55.741Z,97374.34
2023-12-08T02:11:23.021Z,97363.22
2023-12-08T02:13:51.201Z,97363.72
2023-12-08T02:16:22.688Z,97371.75
2023-12-08T02:18:50.472Z,97371.09
2023-12-08T02:21:18.116Z,97365.22
2023-12-08T02:23:49.130Z,97362.63
2023-12-08T02:26:17.874Z,97374.00
2023-12-08T02:28:45.954Z,97375.59
2023-12-08T02:31:20.742Z,97386.00
2023-12-08T02:33:52.887Z,97386.06
2023-12-08T02:36:23.224Z,97396.28
2023-12-08T02:38:53.816Z,97388.31
2023-12-08T02:41:21.582Z,97391.81
2023-12-08T02:43:58.775Z,97386.81
2023-12-08T02:46:25.892Z,97383.97
2023-12-08T02:48:54.959Z,97376.75
2023-12-08T02:51:22.969Z,97378.53
2023-12-08T02:53:50.237Z,97374.25
2023-12-08T02:56:17.343Z,97381.13
2023-12-08T02:58:44.504Z,97383.81
2023-12-08T03:01:12.080Z,97374.25
2023-12-08T03:03:39.274Z,97372.41
2023-12-08T03:06:06.946Z,97376.91
2023-12-08T03:08:34.809Z,97375.19
2023-12-08T03:11:02.038Z,97374.41
2023-12-08T03:13:29.700Z,97377.94
2023-12-08T03:15:58.893Z,97372.66
2023-12-08T03:18:26.435Z,97381.13
2023-12-08T03:20:54.552Z,97377.69
2023-12-08T03:23:21.891Z,97383.66
2023-12-08T03:25:49.204Z,97373.34
2023-12-08T03:28:16.585Z,97388.59
2023-12-08T03:30:44.124Z,97381.63
2023-12-08T03:33:11.496Z,97378.88
2023-12-08T03:35:39.386Z,97375.44
2023-12-08T03:38:06.543Z,97366.22
2023-12-08T03:40:34.203Z,97367.41
2023-12-08T03:43:01.469Z,97366.31
2023-12-08T03:45:29.039Z,97371.06
2023-12-08T03:47:57.865Z,97367.72
2023-12-08T03:50:25.114Z,97376.66
2023-12-08T03:52:55.574Z,97382.53
2023-12-08T03:55:23.572Z,97380.59
2023-12-08T03:57:50.415Z,97377.78
2023-12-08T04:00:18.590Z,97380.53
2023-12-08T04:02:48.683Z,97377.94
2023-12-08T04:05:16.022Z,97369.91
2023-12-08T04:07:43.768Z,97377.44
2023-12-08T04:10:11.122Z,97377.13
2023-12-08T04:12:38.436Z,97387.59
2023-12-08T04:15:06.254Z,97385.69
2023-12-08T04:17:33.639Z,97384.13
2023-12-08T04:20:00.911Z,97390.69
2023-12-08T04:22:28.391Z,97386.56
2023-12-08T04:24:56.286Z,97387.34
2023-12-08T04:27:23.933Z,97395.13
2023-12-08T04:29:52.310Z,97390.25
2023-12-08T04:32:19.388Z,97397.53
2023-12-08T04:34:52.276Z,97401.16
2023-12-08T04:37:24.081Z,97396.25
2023-12-08T04:39:51.651Z,97393.25
2023-12-08T04:42:21.420Z,97397.53
2023-12-08T04:44:49.108Z,97400.72
2023-12-08T04:47:16.410Z,97394.72
2023-12-08T04:49:43.763Z,97403.22
2023-12-08T04:52:11.392Z,97399.38
2023-12-08T04:54:38.709Z,97398.56
2023-12-08T04:57:07.635Z,97394.88
2023-12-08T04:59:35.314Z,97397.38
2023-12-08T05:02:02.586Z,97400.22
2023-12-08T05:04:29.786Z,97394.19
2023-12-08T05:06:56.912Z,97383.13
2023-12-08T05:09:24.195Z,97394.19
2023-12-08T05:11:51.889Z,97401.00
2023-12-08T05:14:22.416Z,97392.38
2023-12-08T05:16:49.732Z,97395.13
2023-12-08T05:19:23.120Z,97395.72
2023-12-08T05:21:50.374Z,97390.00
2023-12-08T05:24:17.524Z,97397.72
2023-12-08T05:26:45.592Z,97402.09
2023-12-08T05:29:12.645Z,97397.88
2023-12-08T05:31:42.368Z,97404.75
2023-12-08T05:34:09.457Z,97411.78
2023-12-08T05:36:36.475Z,97407.19
2023-12-08T05:39:04.546Z,97404.59
2023-12-08T05:41:31.171Z,97413.16
2023-12-08T05:43:58.500Z,97403.75
2023-12-08T05:46:25.726Z,97409.47
2023-12-08T05:48:53.334Z,97409.47
2023-12-08T05:51:20.653Z,97419.84
2023-12-08T05:53:50.803Z,97420.50
2023-12-08T05:56:18.220Z,97418.66
2023-12-08T05:58:48.129Z,97423.84
2023-12-08T06:01:15.972Z,97420.41
2023-12-08T06:03:43.042Z,97421.34
2023-12-08T06:06:10.952Z,97419.84
2023-12-08T06:08:37.960Z,97424.00
2023-12-08T06:11:07.957Z,97416.81
2023-12-08T06:13:36.437Z,97418.50
2023-12-08T06:16:05.264Z,97419.84
2023-12-08T06:18:32.432Z,97425.25
2023-12-08T06:20:59.879Z,97425.88
2023-12-08T06:23:27.261Z,97432.00
2023-12-08T06:25:54.102Z,97428.31
2023-12-08T06:28:21.468Z,97426.69
2023-12-08T06:30:48.641Z,97439.28
2023-12-08T06:33:18.952Z,97428.31
2023-12-08T06:35:46.379Z,97438.59
2023-12-08T06:38:13.402Z,97423.78
2023-12-08T06:40:42.530Z,97437.34
2023-12-08T06:43:09.330Z,97450.16
2023-12-08T06:45:36.221Z,97450.16
2023-12-08T06:48:14.073Z,97453.34
2023-12-08T06:50:41.008Z,97452.50
2023-12-08T06:53:08.535Z,97452.44
2023-12-08T06:55:35.494Z,97441.28
2023-12-08T06:58:02.914Z,97452.44
2023-12-08T07:00:30.247Z,97454.78
2023-12-08T07:02:57.346Z,97457.91
2023-12-08T07:05:24.814Z,97466.59
2023-12-08T07:07:57.669Z,97462.06
2023-12-08T07:10:24.909Z,97457.75
2023-12-08T07:12:51.721Z,97460.25
2023-12-08T07:15:18.703Z,97465.94
2023-12-08T07:17:45.752Z,97464.25
2023-12-08T07:20:16.032Z,97459.66
2023-12-08T07:22:43.103Z,97471.81
2023-12-08T07:25:12.836Z,97471.72
2023-12-08T07:27:39.725Z,97469.06
2023-12-08T07:30:07.411Z,97469.72
2023-12-08T07:32:34.460Z,97474.72
2023-12-08T07:35:01.244Z,97474.91
2023-12-08T07:37:28.861Z,97468.28
2023-12-08T07:39:58.850Z,97477.00
2023-12-08T07:42:25.877Z,97460.91
2023-12-08T07:44:54.487Z,97471.97
2023-12-08T07:47:21.860Z,97469.72
2023-12-08T07:49:48.767Z,97471.47
2023-12-08T07:52:16.812Z,97474.63
2023-12-08T07:54:43.664Z,97477.50
2023-12-08T07:57:10.592Z,97476.25
2023-12-08T07:59:40.516Z,97471.97
2023-12-08T08:02:07.329Z,97475.72
2023-12-08T08:04:34.248Z,97485.88
2023-12-08T08:07:04.636Z,97485.69
2023-12-08T08:09:31.731Z,97485.63
2023-12-08T08:11:58.561Z,97484.88
2023-12-08T08:14:25.469Z,97479.50
2023-12-08T08:16:52.558Z,97480.50
2023-12-08T08:19:20.201Z,97489.59
2023-12-08T08:22:26.782Z,97484.19
2023-12-08T08:24:34.032Z,97489.41
2023-12-08T08:27:02.239Z,97486.53
2023-12-08T08:29:29.363Z,97480.84
2023-12-08T08:31:56.219Z,97483.44
2023-12-08T08:34:23.172Z,97478.22
2023-12-08T08:36:50.176Z,97490.22
2023-12-08T08:39:17.412Z,97477.91
2023-12-08T08:41:49.493Z,97483.53
2023-12-08T08:44:16.450Z,97486.06
2023-12-08T08:46:45.545Z,97477.34
2023-12-08T08:49:12.641Z,97480.19
2023-12-08T08:51:43.614Z,97478.59
2023-12-08T08:54:10.728Z,97483.72
2023-12-08T08:56:44.891Z,97479.50
2023-12-08T08:59:11.811Z,97486.31
2023-12-08T09:01:39.807Z,97477.59
2023-12-08T09:04:06.564Z,97482.44
2023-12-08T09:06:33.641Z,97475.00
2023-12-08T09:09:02.052Z,97463.78
2023-12-08T09:11:28.859Z,97461.75
2023-12-08T09:13:56.068Z,97461.59
2023-12-08T09:16:23.145Z,97459.41
2023-12-08T09:18:50.119Z,97454.69
2023-12-08T09:21:23.009Z,97454.53
2023-12-08T09:23:50.053Z,97451.09
2023-12-08T09:26:17.263Z,97444.97
2023-12-08T09:28:44.213Z,97448.81
2023-12-08T09:31:12.396Z,97433.97
2023-12-08T09:33:40.893Z,97429.50
2023-12-08T09:36:08.511Z,97435.91
2023-12-08T09:38:36.220Z,97429.78
2023-12-08T09:41:06.632Z,97420.16
2023-12-08T09:43:58.770Z,97417.28
2023-12-08T09:46:26.761Z,97406.06
2023-12-08T09:48:57.056Z,97415.06
2023-12-08T09:51:24.169Z,97400.59
2023-12-08T09:53:51.828Z,97405.03
2023-12-08T09:56:20.680Z,97401.34
2023-12-08T09:58:48.833Z,97397.72
2023-12-08T10:01:18.551Z,97387.25
2023-12-08T10:03:45.990Z,97394.94
2023-12-08T10:06:14.692Z,97392.81
2023-12-08T10:08:42.036Z,97380.31
2023-12-08T10:11:08.753Z,97378.09
2023-12-08T10:13:36.153Z,97372.88
2023-12-08T10:16:03.105Z,97371.28
2023-12-08T10:18:31.268Z,97370.19
2023-12-08T10:21:20.771Z,97361.56
2023-12-08T10:23:48.548Z,97368.53
2023-12-08T10:26:17.910Z,97369.66
2023-12-08T10:28:44.740Z,97360.19
2023-12-08T10:31:14.942Z,97362.41
2023-12-08T10:33:49.930Z,97363.28
2023-12-08T10:36:18.170Z,97369.31
2023-12-08T10:38:46.062Z,97362.41
2023-12-08T10:41:13.229Z,97365.94
2023-12-08T10:43:41.056Z,97357.97
2023-12-08T10:46:09.843Z,97351.00
2023-12-08T10:48:39.289Z,97356.13
2023-12-08T10:51:08.286Z,97354.13
2023-12-08T10:53:36.148Z,97349.97
2023-12-08T10:56:11.666Z,97353.31
2023-12-08T10:58:45.247Z,97342.91
2023-12-08T11:01:16.113Z,97344.50
2023-12-08T11:03:53.925Z,97335.84
2023-12-08T11:06:36.318Z,97332.25
2023-12-08T11:09:10.846Z,97327.09
2023-12-08T11:11:44.244Z,97325.25
2023-12-08T11:14:28.994Z,97323.22
2023-12-08T11:17:05.704Z,97323.03
2023-12-08T11:19:34.589Z,97317.00
2023-12-08T11:22:01.700Z,97313.91
2023-12-08T11:24:30.482Z,97322.47
2023-12-08T11:27:40.996Z,97319.31
2023-12-08T11:30:26.760Z,97320.88
2023-12-08T11:33:15.258Z,97320.13
2023-12-08T11:35:42.888Z,97322.91
2023-12-08T11:38:09.916Z,97321.44
2023-12-08T11:40:52.728Z,97311.31
2023-12-08T11:43:19.858Z,97311.59
2023-12-08T11:45:49.009Z,97311.13
2023-12-08T11:48:18.288Z,97308.25
2023-12-08T11:50:46.692Z,97310.38
2023-12-08T11:53:14.462Z,97306.75
2023-12-08T11:55:41.530Z,97304.44
2023-12-08T11:58:12.612Z,97307.59
2023-12-08T12:00:41.065Z,97309.47
2023-12-08T12:03:09.816Z,97301.66
2023-12-08T12:05:37.682Z,97297.38
2023-12-08T12:08:10.903Z,97305.09
2023-12-08T12:10:41.630Z,97303.78
2023-12-08T12:13:15.332Z,97303.69
2023-12-08T12:15:43.562Z,97296.06
2023-12-08T12:18:12.906Z,97304.63
2023-12-08T12:20:40.507Z,97303.78
2023-12-08T12:23:08.070Z,97304.53
2023-12-08T12:25:35.119Z,97300.16
2023-12-08T12:28:02.203Z,97307.41
2023-12-08T12:30:29.285Z,97299.59
2023-12-08T12:33:01.324Z,97302.69
2023-12-08T12:35:28.333Z,97301.00
2023-12-08T12:37:59.007Z,97308.44
2023-12-08T12:40:26.307Z,97307.78
2023-12-08T12:42:56.482Z,97310.66
2023-12-08T12:45:34.914Z,97304.06
2023-12-08T12:48:07.587Z,97309.84
2023-12-08T12:50:53.497Z,97306.69
2023-12-08T12:53:20.464Z,97307.03
2023-12-08T12:55:50.074Z,97309.72
2023-12-08T12:58:20.816Z,97313.91
2023-12-08T13:00:48.199Z,97312.44
2023-12-08T13:03:21.446Z,97321.34
2023-12-08T13:05:54.106Z,97328.31
2023-12-08T13:08:22.027Z,97323.38
2023-12-08T13:10:50.286Z,97321.22
2023-12-08T13:13:23.248Z,97328.47
2023-12-08T13:15:53.335Z,97326.31
2023-12-08T13:18:20.889Z,97330.59
2023-12-08T13:20:48.051Z,97331.72
2023-12-08T13:23:15.071Z,97331.88
2023-12-08T13:25:41.952Z,97330.88
2023-12-08T13:28:09.194Z,97337.00
2023-12-08T13:30:36.946Z,97340.63
2023-12-08T13:33:07.056Z,97332.44
2023-12-08T13:35:37.950Z,97339.47
2023-12-08T13:38:05.025Z,97337.81
2023-12-08T13:40:32.004Z,97337.97
2023-12-08T13:42:59.135Z,97331.19
2023-12-08T13:45:29.098Z,97340.19
2023-12-08T13:47:56.346Z,97348.72
2023-12-08T13:50:23.880Z,97342.69
2023-12-08T13:52:53.641Z,97353.75
2023-12-08T13:55:20.686Z,97350.22
2023-12-08T13:57:47.636Z,97350.47
2023-12-08T14:00:15.422Z,97346.34
2023-12-08T14:02:43.420Z,97347.84
2023-12-08T14:05:13.193Z,97356.03
2023-12-08T14:07:40.734Z,97346.00
2023-12-08T14:10:09.882Z,97354.72
2023-12-08T14:12:37.453Z,97355.66
2023-12-08T14:15:06.397Z,97359.31
2023-12-08T14:17:33.976Z,97348.69
2023-12-08T14:20:01.298Z,97358.97
2023-12-08T14:22:30.628Z,97361.75
2023-12-08T14:25:12.886Z,97359.44
2023-12-08T14:27:42.893Z,97363.78
2023-12-08T14:30:12.295Z,97363.13
2023-12-08T14:32:40.645Z,97367.84
2023-12-08T14:35:18.855Z,97372.88
2023-12-08T14:37:53.412Z,97366.34
2023-12-08T14:40:21.008Z,97368.84
2023-12-08T14:42:48.059Z,97356.06
2023-12-08T14:45:15.238Z,97361.16
2023-12-08T14:47:42.273Z,97362.81
2023-12-08T14:50:13.524Z,97367.09
2023-12-08T14:52:41.622Z,97365.50
2023-12-08T14:55:16.033Z,97362.16
2023-12-08T14:57:44.608Z,97359.81
2023-12-08T15:00:12.961Z,97361.31
2023-12-08T15:02:41.405Z,97361.16
2023-12-08T15:05:10.837Z,97362.97
2023-12-08T15:07:39.103Z,97358.31
2023-12-08T15:10:09.102Z,97362.53
2023-12-08T15:12:37.189Z,97369.72
2023-12-08T15:15:07.506Z,97371.88
2023-12-08T15:17:36.550Z,97370.72
2023-12-08T15:20:09.385Z,97379.28
2023-12-08T15:22:41.401Z,97383.53
2023-12-08T15:25:08.951Z,97376.50
2023-12-08T15:27:38.670Z,97381.09
2023-12-08T15:30:06.849Z,97377.44
2023-12-08T15:32:33.835Z,97385.22
2023-12-08T15:35:04.438Z,97385.97
2023-12-08T15:37:31.639Z,97390.00
2023-12-08T15:39:58.630Z,97397.03
2023-12-08T15:42:25.939Z,97391.00
2023-12-08T15:44:53.283Z,97398.03
2023-12-08T15:47:20.643Z,97402.06
2023-12-08T15:49:48.987Z,97401.06
2023-12-08T15:52:19.210Z,97411.28
2023-12-08T15:54:48.507Z,97404.22
2023-12-08T15:57:16.131Z,97398.53
2023-12-08T15:59:43.281Z,97410.84
2023-12-08T16:02:12.635Z,97407.94
2023-12-08T16:04:44.898Z,97417.47
2023-12-08T16:07:11.844Z,97412.28
2023-12-08T16:09:43.202Z,97408.63
2023-12-08T16:12:10.512Z,97415.31
2023-12-08T16:14:42.691Z,97404.75
2023-12-08T16:17:10.806Z,97416.81
2023-12-08T16:19:37.881Z,97413.28
2023-12-08T16:22:05.012Z,97403.72
2023-12-08T16:24:32.686Z,97401.22
2023-12-08T16:27:00.024Z,97410.13
2023-12-08T16:29:27.291Z,97410.44
2023-12-08T16:31:57.300Z,97401.88
2023-12-08T16:34:26.084Z,97403.44
2023-12-08T16:36:53.594Z,97407.09
2023-12-08T16:39:23.319Z,97404.75
2023-12-08T16:46:29.246Z,97402.41
2023-12-08T16:51:56.122Z,97395.97
2023-12-08T16:54:28.366Z,97402.91
2023-12-08T17:00:47.249Z,97426.13
2023-12-08T17:15:07.611Z,97425.03
2023-12-08T17:17:35.092Z,97427.97
2023-12-08T17:20:15.639Z,97432.41
2023-12-08T17:22:57.469Z,97433.19
2023-12-08T17:25:25.115Z,97442.63
2023-12-08T17:27:52.985Z,97438.94
2023-12-08T17:30:20.375Z,97449.84
2023-12-08T17:32:47.792Z,97437.28
2023-12-08T17:35:15.480Z,97438.22
2023-12-08T17:37:42.721Z,97445.81
2023-12-08T17:40:13.738Z,97444.91
2023-12-08T17:42:41.218Z,97444.06
2023-12-08T17:45:09.180Z,97443.81
2023-12-08T17:47:36.341Z,97449.69
2023-12-08T17:50:03.983Z,97449.44
2023-12-08T17:52:42.153Z,97454.69
2023-12-08T17:55:10.287Z,97465.09
2023-12-08T17:57:42.008Z,97467.94
2023-12-08T18:00:12.879Z,97471.13
2023-12-08T18:02:42.981Z,97459.56
2023-12-08T18:05:12.198Z,97466.59
2023-12-08T18:07:43.886Z,97466.78
2023-12-08T18:10:14.722Z,97460.72
2023-12-08T18:12:42.785Z,97463.41
2023-12-08T18:15:13.893Z,97463.56
2023-12-08T18:17:50.069Z,97463.72
2023-12-08T18:20:19.379Z,97455.38
2023-12-08T18:22:50.125Z,97458.53
2023-12-08T18:25:17.652Z,97461.13
2023-12-08T18:28:00.906Z,97463.00
2023-12-08T18:30:38.243Z,97459.56
2023-12-08T18:33:06.647Z,97462.16
2023-12-08T18:35:35.492Z,97455.94
2023-12-08T18:38:02.877Z,97453.19
2023-12-08T18:40:31.694Z,97461.75
2023-12-08T18:43:11.343Z,97459.16
2023-12-08T18:45:42.007Z,97450.75
2023-12-08T18:48:10.172Z,97453.34
2023-12-08T18:50:40.308Z,97449.66
2023-12-08T18:53:10.351Z,97441.28
2023-12-08T18:55:37.854Z,97450.69
2023-12-08T18:58:08.341Z,97436.00
2023-12-08T19:00:35.358Z,97444.66
2023-12-08T19:03:03.578Z,97443.88
2023-12-08T19:05:43.403Z,97442.97
2023-12-08T19:08:11.129Z,97444.66
2023-12-08T19:10:39.624Z,97446.31
2023-12-08T19:13:06.883Z,97438.59
2023-12-08T19:15:34.568Z,97438.59
2023-12-08T19:18:07.619Z,97447.84
2023-12-08T19:20:35.169Z,97458.38
2023-12-08T19:23:11.990Z,97456.56
2023-12-08T19:25:49.997Z,97459.22
2023-12-08T19:28:17.084Z,97454.38
2023-12-08T19:30:47.496Z,97453.03
2023-12-08T19:33:15.423Z,97456.47
2023-12-08T19:35:42.699Z,97458.06
2023-12-08T19:38:10.795Z,97456.72
2023-12-08T19:40:38.247Z,97454.84
2023-12-08T19:43:05.867Z,97447.16
2023-12-08T19:45:36.337Z,97454.53
2023-12-08T19:48:10.606Z,97454.53
2023-12-08T19:51:05.595Z,97458.06
2023-12-08T19:53:49.008Z,97457.75
2023-12-08T19:56:24.449Z,97452.53
2023-12-08T19:58:51.727Z,97451.00
2023-12-08T20:01:25.127Z,97456.81
2023-12-08T20:04:09.551Z,97464.25
2023-12-08T20:07:00.019Z,97450.84
2023-12-08T20:09:28.033Z,97446.69
2023-12-08T20:11:54.913Z,97454.94
2023-12-08T20:14:22.121Z,97452.88
2023-12-08T20:16:55.729Z,97456.56
2023-12-08T20:19:22.750Z,97460.56
2023-12-08T20:21:53.563Z,97459.25
2023-12-08T20:24:23.627Z,97450.84
2023-12-08T20:26:50.706Z,97440.63
2023-12-08T20:29:23.688Z,97449.19
2023-12-08T20:31:53.619Z,97445.81
2023-12-08T20:34:27.242Z,97448.41
2023-12-08T20:36:55.171Z,97452.88
2023-12-08T20:39:22.318Z,97446.84
2023-12-08T20:41:49.900Z,97440.81
2023-12-08T20:44:18.577Z,97442.31
2023-12-08T20:46:45.959Z,97447.00
2023-12-08T20:49:13.018Z,97443.31
2023-12-08T20:51:40.298Z,97447.84
2023-12-08T20:54:07.188Z,97449.19
2023-12-08T20:56:37.733Z,97450.84
2023-12-08T20:59:08.746Z,97454.53
2023-12-08T21:01:36.041Z,97449.59
2023-12-08T21:04:03.248Z,97456.97
2023-12-08T21:06:33.447Z,97460.50
2023-12-08T21:09:00.773Z,97460.25
2023-12-08T21:11:27.853Z,97462.59
2023-12-08T21:13:55.050Z,97466.94
2023-12-08T21:16:24.267Z,97468.94
2023-12-08T21:18:51.501Z,97471.38
2023-12-08T21:21:19.195Z,97469.28
2023-12-08T21:23:48.788Z,97474.81
2023-12-08T21:26:15.772Z,97466.78
2023-12-08T21:28:45.047Z,97463.16
2023-12-08T21:31:12.048Z,97464.94
2023-12-08T21:33:39.367Z,97465.09
2023-12-08T21:36:08.275Z,97462.06
2023-12-08T21:38:35.488Z,97474.47
2023-12-08T21:41:02.402Z,97468.09
2023-12-08T21:43:29.358Z,97472.28
2023-12-08T21:45:56.339Z,97472.66
2023-12-08T21:48:23.294Z,97479.19
2023-12-08T21:50:50.383Z,97476.47
2023-12-08T21:53:17.650Z,97481.38
2023-12-08T21:55:44.615Z,97475.44
2023-12-08T21:58:11.578Z,97482.22
2023-12-08T22:00:40.498Z,97472.75
2023-12-08T22:03:07.738Z,97467.88
2023-12-08T22:05:34.763Z,97471.84
2023-12-08T22:08:02.152Z,97480.91
2023-12-08T22:10:34.720Z,97482.44
2023-12-08T22:13:04.737Z,97479.41
2023-12-08T22:15:33.848Z,97474.53
2023-12-08T22:18:00.963Z,97474.22
2023-12-08T22:20:28.653Z,97472.72
2023-12-08T22:22:55.874Z,97473.31
2023-12-08T22:25:22.884Z,97465.69
2023-12-08T22:27:49.883Z,97473.47
2023-12-08T22:30:16.949Z,97461.28
2023-12-08T22:32:46.889Z,97459.34
2023-12-08T22:35:13.848Z,97464.19
2023-12-08T22:37:40.965Z,97456.66
2023-12-08T22:40:08.463Z,97451.56
2023-12-08T22:42:35.405Z,97450.72
2023-12-08T22:45:02.543Z,97449.97
2023-12-08T22:47:29.769Z,97455.31
2023-12-08T22:49:59.205Z,97449.28
2023-12-08T22:52:35.808Z,97448.44
2023-12-08T22:55:05.208Z,97455.91
2023-12-08T22:57:32.051Z,97457.59
2023-12-08T23:00:02.847Z,97446.78
2023-12-08T23:02:30.328Z,97452.50
2023-12-08T23:04:57.378Z,97457.75
2023-12-08T23:07:24.332Z,97453.16
2023-12-08T23:09:51.535Z,97465.38
2023-12-08T23:12:18.786Z,97459.09
2023-12-08T23:14:45.965Z,97460.97
2023-12-08T23:17:13.248Z,97465.06
2023-12-08T23:19:44.130Z,97449.81
2023-12-08T23:22:14.439Z,97464.88
2023-12-08T23:24:41.584Z,97460.63
2023-12-08T23:27:08.606Z,97447.31
2023-12-08T23:29:35.631Z,97461.53
2023-12-08T23:32:02.648Z,97453.06
2023-12-08T23:34:29.926Z,97463.56
2023-12-08T23:36:57.102Z,97451.63
2023-12-08T23:39:24.388Z,97443.16
2023-12-08T23:41:52.202Z,97453.16
2023-12-08T23:44:25.335Z,97456.59
2023-12-08T23:46:52.652Z,97453.06
2023-12-08T23:49:23.941Z,97459.94
2023-12-08T23:51:51.476Z,97452.97
2023-12-08T23:54:21.549Z,97451.31
2023-12-08T23:56:51.912Z,97451.06
2023-12-08T23:59:19.160Z,97442.59
